Terminal Aerodrome Forecast
Issued by NWS

Home | Current Version | Previous Version | Text Only | Print | Product List | Glossary On
Versions: 1 2 3 4 5 6 7 8 9 10 11 12 13 14 15 16 17 18 19 20 21 22 23 24 25 26 27
784
FTUS43 KGRB 301023 AAA
TAFMTW
TAF AMD
KMTW 301023Z 3010/3106 04008KT 6SM -RASN SCT020 BKN035
      TEMPO 3010/3014 3SM -RASN BKN020
     FM301400 07012G19KT 2SM -RASN BKN020
     FM301600 08013G20KT 3SM -RA OVC012
     FM310100 03015G23KT 3SM -RASN BR OVC010=

USA.gov is the U.S. government's official web portal to all federal, state and local government web resources and services.